createdAt,value
2023-04-23T00:00:54.686Z,57.07
2023-04-23T00:16:13.829Z,57.22
2023-04-23T00:31:18.297Z,57.43
2023-04-23T00:46:22.846Z,57.94
2023-04-23T01:01:26.949Z,58.26
2023-04-23T01:16:31.618Z,58.68
2023-04-23T01:31:50.687Z,58.89
2023-04-23T01:46:54.969Z,59.43
2023-04-23T02:02:14.120Z,59.79
2023-04-23T02:17:21.777Z,60.05
2023-04-23T02:32:26.503Z,60.48
2023-04-23T02:47:44.369Z,60.29
2023-04-23T03:02:48.572Z,60.51
2023-04-23T03:17:54.082Z,60.63
2023-04-23T03:33:12.061Z,60.87
2023-04-23T03:48:29.810Z,60.91
2023-04-23T04:03:47.785Z,61.19
2023-04-23T04:34:24.045Z,60.41
2023-04-23T04:49:41.959Z,60.75
2023-04-23T05:04:45.960Z,61.41
2023-04-23T05:19:50.420Z,61.90
2023-04-23T05:34:55.578Z,63.11
2023-04-23T05:50:00.367Z,63.16
2023-04-23T06:20:26.215Z,62.16
2023-04-23T06:35:31.535Z,60.92
2023-04-23T06:50:36.198Z,59.37
2023-04-23T07:05:40.933Z,58.02
2023-04-23T07:20:45.735Z,56.53
2023-04-23T07:35:50.271Z,54.87
2023-04-23T07:50:57.187Z,53.47
2023-04-23T08:06:15.282Z,51.72
2023-04-23T08:21:22.329Z,50.76
2023-04-23T08:36:27.900Z,48.64
2023-04-23T08:51:54.873Z,47.47
2023-04-23T09:06:59.085Z,45.68
2023-04-23T09:22:03.471Z,45.25
2023-04-23T09:37:12.199Z,44.57
2023-04-23T09:52:17.506Z,44.22
2023-04-23T10:07:23.010Z,43.21
2023-04-23T10:22:32.330Z,42.37
2023-04-23T10:52:58.981Z,41.03
2023-04-23T11:08:18.826Z,39.63
2023-04-23T11:23:37.659Z,37.54
2023-04-23T11:38:42.594Z,37.74
2023-04-23T11:53:50.019Z,36.74
2023-04-23T12:08:54.794Z,38.10
2023-04-23T12:23:59.407Z,39.43
2023-04-23T12:54:56.794Z,43.35
2023-04-23T13:10:01.275Z,45.30
2023-04-23T13:25:06.148Z,47.53
2023-04-23T13:40:11.473Z,49.31
2023-04-23T13:55:29.918Z,51.19
2023-04-23T14:10:35.483Z,51.20
2023-04-23T14:25:49.538Z,52.38
2023-04-23T14:40:54.329Z,57.88
2023-04-23T14:55:58.548Z,61.59
2023-04-23T15:11:05.555Z,62.14
2023-04-23T15:26:10.749Z,63.14
2023-04-23T15:41:32.017Z,64.63
2023-04-23T15:56:37.846Z,65.28
2023-04-23T16:11:43.026Z,65.73
2023-04-23T16:26:48.595Z,66.53
2023-04-23T16:41:53.454Z,67.63
2023-04-23T16:56:59.736Z,68.12
2023-04-23T17:12:06.545Z,68.44
2023-04-23T17:27:19.012Z,68.65
2023-04-23T17:42:24.988Z,68.82
2023-04-23T17:57:29.577Z,68.72
2023-04-23T18:12:34.866Z,68.93
2023-04-23T18:27:40.023Z,68.94
2023-04-23T18:42:44.436Z,69.27
2023-04-23T18:57:55.457Z,69.42
2023-04-23T19:13:09.996Z,69.35
2023-04-23T19:28:34.589Z,69.81
2023-04-23T19:43:41.900Z,70.07
2023-04-23T19:59:01.064Z,70.41
2023-04-23T20:14:06.314Z,70.48
2023-04-23T20:29:11.452Z,70.59
2023-04-23T20:44:30.594Z,70.60
2023-04-23T20:59:35.856Z,71.00
2023-04-23T21:14:40.247Z,71.26
2023-04-23T21:29:47.518Z,71.29
2023-04-23T21:44:52.566Z,71.19
2023-04-23T21:59:59.462Z,71.14
2023-04-23T22:30:26.086Z,71.23
2023-04-23T22:45:44.095Z,70.41
2023-04-23T23:00:48.523Z,70.01
2023-04-23T23:16:07.186Z,70.49
2023-04-23T23:31:11.760Z,70.26
